sensor_id;sensor_type;location;lat;lon;timestamp;pressure;altitude;pressure_sealevel;temperature;humidity
74794;BME280;63320;50.768;6.724;2022-12-24T00:02:19;99443.53;;;10.00;71.21
74794;BME280;63320;50.768;6.724;2022-12-24T00:04:44;99444.63;;;9.96;71.35
74794;BME280;63320;50.768;6.724;2022-12-24T00:07:10;99440.22;;;9.97;71.57
74794;BME280;63320;50.768;6.724;2022-12-24T00:09:36;99439.38;;;9.96;71.84
74794;BME280;63320;50.768;6.724;2022-12-24T00:12:02;99453.34;;;9.97;72.22
74794;BME280;63320;50.768;6.724;2022-12-24T00:14:27;99461.41;;;9.94;72.42
74794;BME280;63320;50.768;6.724;2022-12-24T00:16:53;99459.66;;;9.94;72.50
74794;BME280;63320;50.768;6.724;2022-12-24T00:19:18;99452.41;;;9.98;72.54
74794;BME280;63320;50.768;6.724;2022-12-24T00:21:43;99460.50;;;9.95;72.81
74794;BME280;63320;50.768;6.724;2022-12-24T00:24:09;99453.19;;;10.00;72.38
74794;BME280;63320;50.768;6.724;2022-12-24T00:26:36;99460.97;;;10.01;72.83
74794;BME280;63320;50.768;6.724;2022-12-24T00:29:01;99469.00;;;9.98;72.89
74794;BME280;63320;50.768;6.724;2022-12-24T00:31:27;99458.72;;;9.95;73.45
74794;BME280;63320;50.768;6.724;2022-12-24T00:33:53;99449.44;;;10.04;73.07
74794;BME280;63320;50.768;6.724;2022-12-24T00:36:19;99451.03;;;10.06;73.24
74794;BME280;63320;50.768;6.724;2022-12-24T00:38:45;99451.13;;;10.05;73.44
74794;BME280;63320;50.768;6.724;2022-12-24T00:41:11;99465.19;;;10.04;73.69
74794;BME280;63320;50.768;6.724;2022-12-24T00:43:38;99472.06;;;10.06;73.83
74794;BME280;63320;50.768;6.724;2022-12-24T00:46:03;99467.13;;;10.16;73.44
74794;BME280;63320;50.768;6.724;2022-12-24T00:48:29;99473.94;;;10.04;74.05
74794;BME280;63320;50.768;6.724;2022-12-24T00:50:54;99470.84;;;10.12;73.56
74794;BME280;63320;50.768;6.724;2022-12-24T00:53:19;99470.59;;;10.17;73.47
74794;BME280;63320;50.768;6.724;2022-12-24T00:55:45;99463.03;;;10.26;72.80
74794;BME280;63320;50.768;6.724;2022-12-24T00:58:10;99475.72;;;10.34;72.48
74794;BME280;63320;50.768;6.724;2022-12-24T01:00:37;99487.44;;;10.28;72.93
74794;BME280;63320;50.768;6.724;2022-12-24T01:03:02;99481.84;;;10.19;73.63
74794;BME280;63320;50.768;6.724;2022-12-24T01:05:27;99492.94;;;10.24;73.39
74794;BME280;63320;50.768;6.724;2022-12-24T01:07:52;99498.53;;;10.33;72.96
74794;BME280;63320;50.768;6.724;2022-12-24T01:10:19;99501.41;;;10.29;72.99
74794;BME280;63320;50.768;6.724;2022-12-24T01:12:45;99501.50;;;10.27;73.53
74794;BME280;63320;50.768;6.724;2022-12-24T01:15:12;99513.28;;;10.36;73.36
74794;BME280;63320;50.768;6.724;2022-12-24T01:17:39;99488.94;;;10.32;73.54
74794;BME280;63320;50.768;6.724;2022-12-24T01:20:07;99511.00;;;10.30;73.47
74794;BME280;63320;50.768;6.724;2022-12-24T01:22:33;99535.66;;;10.27;73.82
74794;BME280;63320;50.768;6.724;2022-12-24T01:24:58;99527.53;;;10.16;74.30
74794;BME280;63320;50.768;6.724;2022-12-24T01:27:24;99521.91;;;10.22;74.01
74794;BME280;63320;50.768;6.724;2022-12-24T01:29:49;99538.72;;;10.20;74.16
74794;BME280;63320;50.768;6.724;2022-12-24T01:32:15;99527.78;;;10.11;74.80
74794;BME280;63320;50.768;6.724;2022-12-24T01:34:42;99533.22;;;10.08;74.93
74794;BME280;63320;50.768;6.724;2022-12-24T01:37:07;99537.13;;;10.01;75.35
74794;BME280;63320;50.768;6.724;2022-12-24T01:39:32;99542.47;;;10.00;75.20
74794;BME280;63320;50.768;6.724;2022-12-24T01:41:58;99543.66;;;10.10;74.36
74794;BME280;63320;50.768;6.724;2022-12-24T01:44:25;99541.44;;;10.02;74.88
74794;BME280;63320;50.768;6.724;2022-12-24T01:46:53;99542.66;;;9.97;75.19
74794;BME280;63320;50.768;6.724;2022-12-24T01:49:19;99545.38;;;9.95;75.41
74794;BME280;63320;50.768;6.724;2022-12-24T01:51:48;99556.03;;;9.92;75.63
74794;BME280;63320;50.768;6.724;2022-12-24T01:54:19;99541.81;;;9.96;75.24
74794;BME280;63320;50.768;6.724;2022-12-24T01:56:50;99554.00;;;9.97;75.12
74794;BME280;63320;50.768;6.724;2022-12-24T01:59:17;99563.81;;;9.94;75.11
74794;BME280;63320;50.768;6.724;2022-12-24T02:01:45;99565.84;;;9.89;75.21
74794;BME280;63320;50.768;6.724;2022-12-24T02:04:16;99585.69;;;9.94;74.91
74794;BME280;63320;50.768;6.724;2022-12-24T02:06:42;99566.72;;;10.05;74.60
74794;BME280;63320;50.768;6.724;2022-12-24T02:09:09;99565.94;;;9.87;75.33
74794;BME280;63320;50.768;6.724;2022-12-24T02:11:36;99561.53;;;9.88;75.10
74794;BME280;63320;50.768;6.724;2022-12-24T02:14:03;99570.94;;;9.92;75.08
74794;BME280;63320;50.768;6.724;2022-12-24T02:16:36;99576.69;;;9.82;75.36
74794;BME280;63320;50.768;6.724;2022-12-24T02:19:18;99583.00;;;9.80;75.64
74794;BME280;63320;50.768;6.724;2022-12-24T02:21:55;99584.66;;;9.97;74.73
74794;BME280;63320;50.768;6.724;2022-12-24T02:24:53;99590.44;;;9.88;75.18
74794;BME280;63320;50.768;6.724;2022-12-24T02:27:30;99598.31;;;9.88;75.57
74794;BME280;63320;50.768;6.724;2022-12-24T02:30:15;99619.31;;;9.88;75.78
74794;BME280;63320;50.768;6.724;2022-12-24T02:32:56;99600.94;;;9.88;75.96
74794;BME280;63320;50.768;6.724;2022-12-24T02:35:32;99621.09;;;10.03;75.72
74794;BME280;63320;50.768;6.724;2022-12-24T02:38:02;99607.63;;;9.93;76.31
74794;BME280;63320;50.768;6.724;2022-12-24T02:40:35;99607.22;;;9.85;77.00
74794;BME280;63320;50.768;6.724;2022-12-24T02:43:06;99614.91;;;9.88;76.87
74794;BME280;63320;50.768;6.724;2022-12-24T02:45:35;99615.69;;;9.90;77.07
74794;BME280;63320;50.768;6.724;2022-12-24T02:48:05;99624.56;;;9.88;77.14
74794;BME280;63320;50.768;6.724;2022-12-24T02:50:31;99620.94;;;9.90;76.63
74794;BME280;63320;50.768;6.724;2022-12-24T02:52:56;99618.22;;;9.92;77.26
74794;BME280;63320;50.768;6.724;2022-12-24T02:55:27;99627.19;;;9.88;77.44
74794;BME280;63320;50.768;6.724;2022-12-24T02:58:05;99613.41;;;9.84;77.95
74794;BME280;63320;50.768;6.724;2022-12-24T03:00:46;99628.13;;;9.71;79.39
74794;BME280;63320;50.768;6.724;2022-12-24T03:03:30;99612.84;;;9.62;80.49
74794;BME280;63320;50.768;6.724;2022-12-24T03:06:00;99621.16;;;9.54;81.45
74794;BME280;63320;50.768;6.724;2022-12-24T03:08:37;99613.91;;;9.42;82.68
74794;BME280;63320;50.768;6.724;2022-12-24T03:11:07;99619.84;;;9.45;82.67
74794;BME280;63320;50.768;6.724;2022-12-24T03:13:33;99627.78;;;9.44;82.78
74794;BME280;63320;50.768;6.724;2022-12-24T03:16:03;99619.91;;;9.44;83.29
74794;BME280;63320;50.768;6.724;2022-12-24T03:18:30;99632.16;;;9.27;84.29
74794;BME280;63320;50.768;6.724;2022-12-24T03:20:59;99633.69;;;9.31;84.40
74794;BME280;63320;50.768;6.724;2022-12-24T03:23:25;99634.44;;;9.33;84.54
74794;BME280;63320;50.768;6.724;2022-12-24T03:25:51;99621.03;;;9.40;84.29
74794;BME280;63320;50.768;6.724;2022-12-24T03:28:17;99638.94;;;9.31;85.07
74794;BME280;63320;50.768;6.724;2022-12-24T03:30:46;99646.91;;;9.30;85.50
74794;BME280;63320;50.768;6.724;2022-12-24T03:33:13;99638.72;;;9.36;85.01
74794;BME280;63320;50.768;6.724;2022-12-24T03:35:39;99635.25;;;9.36;84.86
74794;BME280;63320;50.768;6.724;2022-12-24T03:38:04;99647.75;;;9.30;85.59
74794;BME280;63320;50.768;6.724;2022-12-24T03:40:29;99660.69;;;9.33;85.49
74794;BME280;63320;50.768;6.724;2022-12-24T03:42:55;99652.84;;;9.16;86.00
74794;BME280;63320;50.768;6.724;2022-12-24T03:45:20;99653.00;;;9.13;84.67
74794;BME280;63320;50.768;6.724;2022-12-24T03:47:46;99655.81;;;9.10;84.42
74794;BME280;63320;50.768;6.724;2022-12-24T03:50:12;99677.09;;;9.04;84.57
74794;BME280;63320;50.768;6.724;2022-12-24T03:52:38;99667.06;;;8.95;83.50
74794;BME280;63320;50.768;6.724;2022-12-24T03:55:04;99671.06;;;8.85;84.91
74794;BME280;63320;50.768;6.724;2022-12-24T03:57:29;99669.88;;;8.73;86.38
74794;BME280;63320;50.768;6.724;2022-12-24T03:59:54;99669.53;;;8.80;86.90
74794;BME280;63320;50.768;6.724;2022-12-24T04:02:20;99677.00;;;8.71;86.76
74794;BME280;63320;50.768;6.724;2022-12-24T04:04:45;99664.09;;;8.66;87.17
74794;BME280;63320;50.768;6.724;2022-12-24T04:07:12;99657.94;;;8.67;86.89
74794;BME280;63320;50.768;6.724;2022-12-24T04:09:37;99663.34;;;8.64;85.90
74794;BME280;63320;50.768;6.724;2022-12-24T04:12:03;99665.66;;;8.70;85.27
74794;BME280;63320;50.768;6.724;2022-12-24T04:14:29;99654.88;;;8.59;85.32
74794;BME280;63320;50.768;6.724;2022-12-24T04:16:54;99650.38;;;8.61;85.70
74794;BME280;63320;50.768;6.724;2022-12-24T04:19:19;99661.25;;;8.53;85.50
74794;BME280;63320;50.768;6.724;2022-12-24T04:21:45;99674.78;;;8.44;84.79
74794;BME280;63320;50.768;6.724;2022-12-24T04:24:11;99673.44;;;8.54;84.87
74794;BME280;63320;50.768;6.724;2022-12-24T04:26:37;99674.72;;;8.46;84.42
74794;BME280;63320;50.768;6.724;2022-12-24T04:29:02;99663.09;;;8.51;84.64
74794;BME280;63320;50.768;6.724;2022-12-24T04:31:27;99676.19;;;8.51;84.42
74794;BME280;63320;50.768;6.724;2022-12-24T04:33:53;99681.09;;;8.40;84.16
74794;BME280;63320;50.768;6.724;2022-12-24T04:36:19;99675.66;;;8.45;84.28
74794;BME280;63320;50.768;6.724;2022-12-24T04:38:46;99679.25;;;8.42;84.01
74794;BME280;63320;50.768;6.724;2022-12-24T04:41:15;99686.38;;;8.57;83.73
74794;BME280;63320;50.768;6.724;2022-12-24T04:43:41;99681.97;;;8.58;83.73
74794;BME280;63320;50.768;6.724;2022-12-24T04:46:08;99696.81;;;8.76;83.47
74794;BME280;63320;50.768;6.724;2022-12-24T04:48:34;99687.03;;;8.80;83.95
74794;BME280;63320;50.768;6.724;2022-12-24T04:51:00;99689.09;;;9.08;83.83
74794;BME280;63320;50.768;6.724;2022-12-24T04:53:26;99691.31;;;9.33;82.51
74794;BME280;63320;50.768;6.724;2022-12-24T04:55:51;99686.41;;;9.44;82.30
74794;BME280;63320;50.768;6.724;2022-12-24T04:58:18;99697.94;;;9.57;81.82
74794;BME280;63320;50.768;6.724;2022-12-24T05:00:43;99690.72;;;9.45;82.70
74794;BME280;63320;50.768;6.724;2022-12-24T05:03:08;99685.38;;;9.47;82.55
74794;BME280;63320;50.768;6.724;2022-12-24T05:05:34;99695.63;;;9.51;82.43
74794;BME280;63320;50.768;6.724;2022-12-24T05:07:59;99704.34;;;9.52;82.20
74794;BME280;63320;50.768;6.724;2022-12-24T05:10:24;99706.97;;;9.52;82.21
74794;BME280;63320;50.768;6.724;2022-12-24T05:12:50;99712.47;;;9.47;82.68
74794;BME280;63320;50.768;6.724;2022-12-24T05:15:16;99712.13;;;9.53;81.81
74794;BME280;63320;50.768;6.724;2022-12-24T05:17:42;99714.34;;;9.45;82.40
74794;BME280;63320;50.768;6.724;2022-12-24T05:20:07;99714.38;;;9.44;82.27
74794;BME280;63320;50.768;6.724;2022-12-24T05:22:33;99718.97;;;9.40;82.53
74794;BME280;63320;50.768;6.724;2022-12-24T05:24:58;99714.56;;;9.41;82.68
74794;BME280;63320;50.768;6.724;2022-12-24T05:27:23;99721.03;;;9.33;82.99
74794;BME280;63320;50.768;6.724;2022-12-24T05:29:49;99708.09;;;9.30;83.05
74794;BME280;63320;50.768;6.724;2022-12-24T05:32:15;99718.06;;;9.24;83.46
74794;BME280;63320;50.768;6.724;2022-12-24T05:34:41;99730.69;;;9.33;82.86
74794;BME280;63320;50.768;6.724;2022-12-24T05:37:06;99728.84;;;9.35;82.81
74794;BME280;63320;50.768;6.724;2022-12-24T05:39:31;99713.78;;;9.39;82.55
74794;BME280;63320;50.768;6.724;2022-12-24T05:41:57;99720.75;;;9.40;82.57
74794;BME280;63320;50.768;6.724;2022-12-24T05:44:22;99719.03;;;9.39;82.80
74794;BME280;63320;50.768;6.724;2022-12-24T05:46:47;99732.00;;;9.42;82.64
74794;BME280;63320;50.768;6.724;2022-12-24T05:49:14;99747.13;;;9.54;81.93
74794;BME280;63320;50.768;6.724;2022-12-24T05:51:39;99733.53;;;9.46;82.60
74794;BME280;63320;50.768;6.724;2022-12-24T05:54:05;99743.03;;;9.48;82.44
74794;BME280;63320;50.768;6.724;2022-12-24T05:56:31;99744.56;;;9.52;82.17
74794;BME280;63320;50.768;6.724;2022-12-24T05:58:56;99744.34;;;9.57;81.78
74794;BME280;63320;50.768;6.724;2022-12-24T06:01:22;99740.41;;;9.48;82.49
74794;BME280;63320;50.768;6.724;2022-12-24T06:03:48;99750.03;;;9.48;82.51
74794;BME280;63320;50.768;6.724;2022-12-24T06:06:17;99754.50;;;9.63;81.40
74794;BME280;63320;50.768;6.724;2022-12-24T06:08:42;99761.63;;;9.61;81.79
74794;BME280;63320;50.768;6.724;2022-12-24T06:11:09;99745.72;;;9.64;81.67
74794;BME280;63320;50.768;6.724;2022-12-24T06:13:36;99754.38;;;9.66;81.37
74794;BME280;63320;50.768;6.724;2022-12-24T06:16:03;99744.72;;;9.67;81.40
74794;BME280;63320;50.768;6.724;2022-12-24T06:18:29;99749.03;;;9.68;81.28
74794;BME280;63320;50.768;6.724;2022-12-24T06:20:56;99752.13;;;9.58;81.71
74794;BME280;63320;50.768;6.724;2022-12-24T06:23:23;99754.13;;;9.53;82.12
74794;BME280;63320;50.768;6.724;2022-12-24T06:25:49;99755.16;;;9.51;82.39
74794;BME280;63320;50.768;6.724;2022-12-24T06:28:15;99769.88;;;9.53;81.73
74794;BME280;63320;50.768;6.724;2022-12-24T06:30:45;99764.00;;;9.66;81.00
74794;BME280;63320;50.768;6.724;2022-12-24T06:33:11;99767.41;;;9.68;80.77
74794;BME280;63320;50.768;6.724;2022-12-24T06:35:36;99774.44;;;9.67;80.59
74794;BME280;63320;50.768;6.724;2022-12-24T06:38:01;99770.25;;;9.63;80.96
74794;BME280;63320;50.768;6.724;2022-12-24T06:40:28;99778.97;;;9.64;80.47
74794;BME280;63320;50.768;6.724;2022-12-24T06:42:53;99782.06;;;9.72;80.02
74794;BME280;63320;50.768;6.724;2022-12-24T06:45:19;99787.13;;;9.59;80.98
74794;BME280;63320;50.768;6.724;2022-12-24T06:47:44;99785.41;;;9.58;80.54
74794;BME280;63320;50.768;6.724;2022-12-24T06:50:10;99793.44;;;9.55;80.95
74794;BME280;63320;50.768;6.724;2022-12-24T06:52:35;99793.13;;;9.61;80.40
74794;BME280;63320;50.768;6.724;2022-12-24T06:55:01;99798.47;;;9.59;80.28
74794;BME280;63320;50.768;6.724;2022-12-24T06:57:27;99794.75;;;9.46;81.36
74794;BME280;63320;50.768;6.724;2022-12-24T06:59:53;99801.06;;;9.42;81.24
74794;BME280;63320;50.768;6.724;2022-12-24T07:02:18;99790.25;;;9.48;80.55
74794;BME280;63320;50.768;6.724;2022-12-24T07:04:43;99795.06;;;9.40;80.87
74794;BME280;63320;50.768;6.724;2022-12-24T07:07:08;99799.28;;;9.43;80.99
74794;BME280;63320;50.768;6.724;2022-12-24T07:09:34;99807.34;;;9.40;81.30
74794;BME280;63320;50.768;6.724;2022-12-24T07:11:59;99804.09;;;9.34;81.29
74794;BME280;63320;50.768;6.724;2022-12-24T07:14:26;99815.03;;;9.43;80.21
74794;BME280;63320;50.768;6.724;2022-12-24T07:16:51;99815.13;;;9.41;80.69
74794;BME280;63320;50.768;6.724;2022-12-24T07:19:17;99820.75;;;9.51;80.36
74794;BME280;63320;50.768;6.724;2022-12-24T07:21:42;99832.41;;;9.63;79.10
74794;BME280;63320;50.768;6.724;2022-12-24T07:24:07;99837.53;;;9.66;78.67
74794;BME280;63320;50.768;6.724;2022-12-24T07:26:33;99825.16;;;9.68;78.88
74794;BME280;63320;50.768;6.724;2022-12-24T07:28:58;99835.13;;;9.61;79.13
74794;BME280;63320;50.768;6.724;2022-12-24T07:31:25;99843.38;;;9.53;79.34
74794;BME280;63320;50.768;6.724;2022-12-24T07:33:50;99839.91;;;9.53;79.04
74794;BME280;63320;50.768;6.724;2022-12-24T07:36:17;99850.66;;;9.66;78.43
74794;BME280;63320;50.768;6.724;2022-12-24T07:38:43;99849.31;;;9.57;78.88
74794;BME280;63320;50.768;6.724;2022-12-24T07:41:09;99857.41;;;9.52;78.94
74794;BME280;63320;50.768;6.724;2022-12-24T07:43:34;99859.72;;;9.58;78.48
74794;BME280;63320;50.768;6.724;2022-12-24T07:45:59;99858.97;;;9.56;78.55
74794;BME280;63320;50.768;6.724;2022-12-24T07:48:28;99855.88;;;9.48;79.00
74794;BME280;63320;50.768;6.724;2022-12-24T07:50:54;99855.03;;;9.48;79.15
74794;BME280;63320;50.768;6.724;2022-12-24T07:53:19;99862.66;;;9.52;79.09
74794;BME280;63320;50.768;6.724;2022-12-24T07:55:45;99855.03;;;9.48;79.22
74794;BME280;63320;50.768;6.724;2022-12-24T07:58:10;99865.25;;;9.54;78.93
74794;BME280;63320;50.768;6.724;2022-12-24T08:00:36;99867.06;;;9.52;78.93
74794;BME280;63320;50.768;6.724;2022-12-24T08:03:01;99874.50;;;9.61;78.61
74794;BME280;63320;50.768;6.724;2022-12-24T08:05:28;99868.78;;;9.53;78.89
74794;BME280;63320;50.768;6.724;2022-12-24T08:07:53;99875.56;;;9.57;78.83
74794;BME280;63320;50.768;6.724;2022-12-24T08:10:19;99875.75;;;9.54;79.01
74794;BME280;63320;50.768;6.724;2022-12-24T08:12:45;99884.75;;;9.48;79.40
74794;BME280;63320;50.768;6.724;2022-12-24T08:15:10;99885.22;;;9.39;79.98
74794;BME280;63320;50.768;6.724;2022-12-24T08:17:35;99889.13;;;9.48;79.22
74794;BME280;63320;50.768;6.724;2022-12-24T08:20:01;99883.88;;;9.48;79.41
74794;BME280;63320;50.768;6.724;2022-12-24T08:22:28;99884.91;;;9.45;79.54
74794;BME280;63320;50.768;6.724;2022-12-24T08:24:53;99882.50;;;9.41;79.90
74794;BME280;63320;50.768;6.724;2022-12-24T08:27:18;99892.06;;;9.42;79.67
74794;BME280;63320;50.768;6.724;2022-12-24T08:29:43;99885.88;;;9.43;79.84
74794;BME280;63320;50.768;6.724;2022-12-24T08:32:09;99894.16;;;9.52;79.44
74794;BME280;63320;50.768;6.724;2022-12-24T08:34:34;99902.34;;;9.64;78.88
74794;BME280;63320;50.768;6.724;2022-12-24T08:36:59;99907.47;;;9.67;78.67
74794;BME280;63320;50.768;6.724;2022-12-24T08:39:27;99908.22;;;9.69;78.85
74794;BME280;63320;50.768;6.724;2022-12-24T08:41:52;99911.41;;;9.75;78.60
74794;BME280;63320;50.768;6.724;2022-12-24T08:44:19;99913.88;;;9.78;79.00
74794;BME280;63320;50.768;6.724;2022-12-24T08:46:44;99916.91;;;9.88;78.50
74794;BME280;63320;50.768;6.724;2022-12-24T08:49:09;99920.94;;;9.95;77.80
74794;BME280;63320;50.768;6.724;2022-12-24T08:51:35;99910.88;;;10.03;77.40
74794;BME280;63320;50.768;6.724;2022-12-24T08:54:00;99927.78;;;9.98;77.97
74794;BME280;63320;50.768;6.724;2022-12-24T08:56:27;99921.22;;;10.06;77.51
74794;BME280;63320;50.768;6.724;2022-12-24T08:58:52;99927.84;;;10.13;76.93
74794;BME280;63320;50.768;6.724;2022-12-24T09:01:18;99922.97;;;10.25;76.81
74794;BME280;63320;50.768;6.724;2022-12-24T09:03:44;99931.97;;;10.19;77.12
74794;BME280;63320;50.768;6.724;2022-12-24T09:06:10;99932.97;;;10.17;77.36
74794;BME280;63320;50.768;6.724;2022-12-24T09:08:35;99938.31;;;10.15;77.45
74794;BME280;63320;50.768;6.724;2022-12-24T09:11:03;99947.81;;;10.18;77.22
74794;BME280;63320;50.768;6.724;2022-12-24T09:13:30;99943.16;;;10.23;76.96
74794;BME280;63320;50.768;6.724;2022-12-24T09:15:55;99959.53;;;10.29;76.74
74794;BME280;63320;50.768;6.724;2022-12-24T09:18:21;99953.38;;;10.29;77.03
74794;BME280;63320;50.768;6.724;2022-12-24T09:20:46;99950.38;;;10.36;75.85
74794;BME280;63320;50.768;6.724;2022-12-24T09:23:11;99968.31;;;10.28;76.49
74794;BME280;63320;50.768;6.724;2022-12-24T09:25:39;99964.78;;;10.29;76.16
74794;BME280;63320;50.768;6.724;2022-12-24T09:28:05;99963.84;;;10.30;76.23
74794;BME280;63320;50.768;6.724;2022-12-24T09:30:31;99978.06;;;10.26;76.25
74794;BME280;63320;50.768;6.724;2022-12-24T09:32:57;99976.97;;;10.30;75.76
74794;BME280;63320;50.768;6.724;2022-12-24T09:35:22;99986.56;;;10.31;76.23
74794;BME280;63320;50.768;6.724;2022-12-24T09:37:47;99984.63;;;10.35;75.87
74794;BME280;63320;50.768;6.724;2022-12-24T09:40:19;99997.22;;;10.46;74.73
74794;BME280;63320;50.768;6.724;2022-12-24T09:42:50;99980.75;;;10.42;75.21
74794;BME280;63320;50.768;6.724;2022-12-24T09:45:20;99996.53;;;10.42;75.01
74794;BME280;63320;50.768;6.724;2022-12-24T09:47:52;99990.94;;;10.48;74.61
74794;BME280;63320;50.768;6.724;2022-12-24T09:50:28;99979.56;;;10.48;74.86
74794;BME280;63320;50.768;6.724;2022-12-24T09:52:57;99995.75;;;10.40;75.62
74794;BME280;63320;50.768;6.724;2022-12-24T09:55:27;99992.97;;;10.43;75.73
74794;BME280;63320;50.768;6.724;2022-12-24T09:57:57;100002.41;;;10.47;75.20
74794;BME280;63320;50.768;6.724;2022-12-24T10:00:27;100004.69;;;10.53;74.73
74794;BME280;63320;50.768;6.724;2022-12-24T10:02:54;100002.16;;;10.52;74.94
74794;BME280;63320;50.768;6.724;2022-12-24T10:05:27;100014.59;;;10.48;75.28
74794;BME280;63320;50.768;6.724;2022-12-24T10:08:04;100024.03;;;10.52;74.85
74794;BME280;63320;50.768;6.724;2022-12-24T10:10:37;100003.41;;;10.45;75.66
74794;BME280;63320;50.768;6.724;2022-12-24T10:13:15;100011.22;;;10.46;75.57
74794;BME280;63320;50.768;6.724;2022-12-24T10:15:49;100012.75;;;10.50;75.24
74794;BME280;63320;50.768;6.724;2022-12-24T10:18:26;100011.31;;;10.45;75.82
74794;BME280;63320;50.768;6.724;2022-12-24T10:20:59;100006.28;;;10.40;76.27
74794;BME280;63320;50.768;6.724;2022-12-24T10:23:31;100007.44;;;10.34;76.16
74794;BME280;63320;50.768;6.724;2022-12-24T10:26:06;100002.00;;;10.37;76.24
74794;BME280;63320;50.768;6.724;2022-12-24T10:28:39;100001.06;;;10.38;76.02
74794;BME280;63320;50.768;6.724;2022-12-24T10:31:08;100010.50;;;10.43;75.58
74794;BME280;63320;50.768;6.724;2022-12-24T10:33:39;100020.09;;;10.44;75.36
74794;BME280;63320;50.768;6.724;2022-12-24T10:36:07;100022.44;;;10.50;75.29
74794;BME280;63320;50.768;6.724;2022-12-24T10:38:35;100016.31;;;10.49;75.42
74794;BME280;63320;50.768;6.724;2022-12-24T10:41:00;100020.09;;;10.44;75.74
74794;BME280;63320;50.768;6.724;2022-12-24T10:43:28;100024.44;;;10.45;75.85
74794;BME280;63320;50.768;6.724;2022-12-24T10:45:55;100025.44;;;10.42;76.17
74794;BME280;63320;50.768;6.724;2022-12-24T10:48:24;100032.25;;;10.46;75.74
74794;BME280;63320;50.768;6.724;2022-12-24T10:50:56;100021.81;;;10.45;75.84
74794;BME280;63320;50.768;6.724;2022-12-24T10:53:26;100031.53;;;10.43;76.14
74794;BME280;63320;50.768;6.724;2022-12-24T10:56:03;100022.66;;;10.45;76.51
74794;BME280;63320;50.768;6.724;2022-12-24T10:58:30;100022.50;;;10.48;76.18
74794;BME280;63320;50.768;6.724;2022-12-24T11:00:55;100014.53;;;10.50;75.89
74794;BME280;63320;50.768;6.724;2022-12-24T11:03:24;100027.19;;;10.59;74.99
74794;BME280;63320;50.768;6.724;2022-12-24T11:06:08;100014.97;;;10.58;74.98
74794;BME280;63320;50.768;6.724;2022-12-24T11:08:35;100013.38;;;10.55;75.08
74794;BME280;63320;50.768;6.724;2022-12-24T11:11:03;100005.53;;;10.54;75.51
74794;BME280;63320;50.768;6.724;2022-12-24T11:13:31;100016.31;;;10.49;75.89
74794;BME280;63320;50.768;6.724;2022-12-24T11:16:03;100016.94;;;10.54;75.66
74794;BME280;63320;50.768;6.724;2022-12-24T11:18:30;100008.03;;;10.57;75.62
74794;BME280;63320;50.768;6.724;2022-12-24T11:20:56;100006.66;;;10.50;76.25
74794;BME280;63320;50.768;6.724;2022-12-24T11:23:23;100006.44;;;10.54;75.90
74794;BME280;63320;50.768;6.724;2022-12-24T11:25:49;100003.38;;;10.62;75.18
74794;BME280;63320;50.768;6.724;2022-12-24T11:28:20;100002.00;;;10.55;75.72
74794;BME280;63320;50.768;6.724;2022-12-24T11:30:56;100006.34;;;10.56;75.41
74794;BME280;63320;50.768;6.724;2022-12-24T11:33:22;100018.03;;;10.50;76.08
74794;BME280;63320;50.768;6.724;2022-12-24T11:35:52;100001.84;;;10.58;75.53
74794;BME280;63320;50.768;6.724;2022-12-24T11:38:20;100014.97;;;10.58;75.69
74794;BME280;63320;50.768;6.724;2022-12-24T11:40:49;100021.41;;;10.52;75.65
74794;BME280;63320;50.768;6.724;2022-12-24T11:43:16;100019.63;;;10.53;75.72
74794;BME280;63320;50.768;6.724;2022-12-24T11:45:47;100013.91;;;10.62;75.27
74794;BME280;63320;50.768;6.724;2022-12-24T11:48:24;100018.16;;;10.65;75.13
74794;BME280;63320;50.768;6.724;2022-12-24T11:50:55;100026.72;;;10.68;74.68
74794;BME280;63320;50.768;6.724;2022-12-24T11:53:22;100019.06;;;10.63;75.15
74794;BME280;63320;50.768;6.724;2022-12-24T11:55:52;100021.56;;;10.67;75.17
74794;BME280;63320;50.768;6.724;2022-12-24T11:58:25;100017.91;;;10.69;74.94
74794;BME280;63320;50.768;6.724;2022-12-24T12:01:01;100006.75;;;10.81;74.79
74794;BME280;63320;50.768;6.724;2022-12-24T12:03:30;100012.97;;;10.80;74.85
74794;BME280;63320;50.768;6.724;2022-12-24T12:05:58;100012.72;;;10.85;74.71
74794;BME280;63320;50.768;6.724;2022-12-24T12:08:27;100007.06;;;11.08;73.57
74794;BME280;63320;50.768;6.724;2022-12-24T12:10:55;100012.66;;;11.02;72.66
74794;BME280;63320;50.768;6.724;2022-12-24T12:13:26;100018.06;;;10.99;73.17
74794;BME280;63320;50.768;6.724;2022-12-24T12:16:03;100030.81;;;10.91;73.16
74794;BME280;63320;50.768;6.724;2022-12-24T12:18:33;100012.91;;;10.98;72.48
74794;BME280;63320;50.768;6.724;2022-12-24T12:21:03;100026.75;;;11.01;72.78
74794;BME280;63320;50.768;6.724;2022-12-24T12:23:33;100037.03;;;11.06;71.82
74794;BME280;63320;50.768;6.724;2022-12-24T12:26:06;100029.63;;;10.97;72.35
74794;BME280;63320;50.768;6.724;2022-12-24T12:28:37;100045.88;;;11.05;72.27
74794;BME280;63320;50.768;6.724;2022-12-24T12:31:11;100025.44;;;11.10;71.89
74794;BME280;63320;50.768;6.724;2022-12-24T12:33:43;100028.31;;;11.05;72.09
74794;BME280;63320;50.768;6.724;2022-12-24T12:36:13;100024.56;;;11.09;71.95
74794;BME280;63320;50.768;6.724;2022-12-24T12:38:41;100027.63;;;11.18;71.42
74794;BME280;63320;50.768;6.724;2022-12-24T12:41:17;100038.84;;;11.21;72.06
74794;BME280;63320;50.768;6.724;2022-12-24T12:44:20;100025.34;;;11.11;71.75
74794;BME280;63320;50.768;6.724;2022-12-24T12:47:04;100027.13;;;11.11;72.59
74794;BME280;63320;50.768;6.724;2022-12-24T12:49:41;100034.22;;;11.09;72.20
74794;BME280;63320;50.768;6.724;2022-12-24T12:52:16;100022.88;;;11.24;71.91
74794;BME280;63320;50.768;6.724;2022-12-24T12:54:53;100030.88;;;11.23;72.18
74794;BME280;63320;50.768;6.724;2022-12-24T12:57:25;100024.06;;;11.19;72.45
74794;BME280;63320;50.768;6.724;2022-12-24T12:59:58;100021.44;;;11.19;72.39
74794;BME280;63320;50.768;6.724;2022-12-24T13:02:49;100029.06;;;11.07;72.59
74794;BME280;63320;50.768;6.724;2022-12-24T13:05:35;100027.28;;;11.08;72.74
74794;BME280;63320;50.768;6.724;2022-12-24T13:11:19;100036.56;;;11.15;73.01